sensor_id;sensor_type;location;lat;lon;timestamp;P1;durP1;ratioP1;P2;durP2;ratioP2
4198;SDS011;2113;50.946;14.610;2023-04-25T00:00:26;8.63;;;3.30;;
4198;SDS011;2113;50.946;14.610;2023-04-25T00:02:54;12.13;;;3.25;;
4198;SDS011;2113;50.946;14.610;2023-04-25T00:05:24;6.97;;;2.80;;
4198;SDS011;2113;50.946;14.610;2023-04-25T00:07:52;6.15;;;3.03;;
4198;SDS011;2113;50.946;14.610;2023-04-25T00:10:21;6.10;;;2.90;;
4198;SDS011;2113;50.946;14.610;2023-04-25T00:12:49;6.75;;;4.18;;
4198;SDS011;2113;50.946;14.610;2023-04-25T00:15:19;5.68;;;3.20;;
4198;SDS011;2113;50.946;14.610;2023-04-25T00:17:47;5.65;;;3.10;;
4198;SDS011;2113;50.946;14.610;2023-04-25T00:20:16;4.88;;;2.90;;
4198;SDS011;2113;50.946;14.610;2023-04-25T00:22:44;5.75;;;3.00;;
4198;SDS011;2113;50.946;14.610;2023-04-25T00:25:13;5.30;;;2.63;;
4198;SDS011;2113;50.946;14.610;2023-04-25T00:27:41;6.20;;;3.20;;
4198;SDS011;2113;50.946;14.610;2023-04-25T00:30:09;6.65;;;2.65;;
4198;SDS011;2113;50.946;14.610;2023-04-25T00:32:40;9.35;;;3.45;;
4198;SDS011;2113;50.946;14.610;2023-04-25T00:35:08;9.65;;;3.90;;
4198;SDS011;2113;50.946;14.610;2023-04-25T00:37:37;6.82;;;4.30;;
4198;SDS011;2113;50.946;14.610;2023-04-25T00:40:05;8.07;;;4.15;;
4198;SDS011;2113;50.946;14.610;2023-04-25T00:42:34;7.30;;;3.60;;
4198;SDS011;2113;50.946;14.610;2023-04-25T00:45:04;4.85;;;2.80;;
4198;SDS011;2113;50.946;14.610;2023-04-25T00:47:35;7.85;;;2.60;;
4198;SDS011;2113;50.946;14.610;2023-04-25T00:50:06;8.82;;;4.00;;
4198;SDS011;2113;50.946;14.610;2023-04-25T00:52:37;7.97;;;4.10;;
4198;SDS011;2113;50.946;14.610;2023-04-25T00:55:06;12.13;;;3.80;;
4198;SDS011;2113;50.946;14.610;2023-04-25T00:57:35;7.32;;;3.85;;
4198;SDS011;2113;50.946;14.610;2023-04-25T01:00:04;10.20;;;3.97;;
4198;SDS011;2113;50.946;14.610;2023-04-25T01:02:37;9.07;;;3.22;;
4198;SDS011;2113;50.946;14.610;2023-04-25T01:05:08;6.45;;;3.42;;
4198;SDS011;2113;50.946;14.610;2023-04-25T01:07:36;7.07;;;3.30;;
4198;SDS011;2113;50.946;14.610;2023-04-25T01:10:05;5.25;;;2.72;;
4198;SDS011;2113;50.946;14.610;2023-04-25T01:12:34;15.30;;;3.22;;
4198;SDS011;2113;50.946;14.610;2023-04-25T01:15:03;6.07;;;2.97;;
4198;SDS011;2113;50.946;14.610;2023-04-25T01:17:33;9.18;;;3.95;;
4198;SDS011;2113;50.946;14.610;2023-04-25T01:20:03;5.38;;;3.10;;
4198;SDS011;2113;50.946;14.610;2023-04-25T01:22:33;6.10;;;2.88;;
4198;SDS011;2113;50.946;14.610;2023-04-25T01:25:02;7.47;;;3.15;;
4198;SDS011;2113;50.946;14.610;2023-04-25T01:27:30;8.48;;;4.15;;
4198;SDS011;2113;50.946;14.610;2023-04-25T01:29:59;7.65;;;3.67;;
4198;SDS011;2113;50.946;14.610;2023-04-25T01:32:30;5.70;;;3.90;;
4198;SDS011;2113;50.946;14.610;2023-04-25T01:35:05;6.80;;;3.80;;
4198;SDS011;2113;50.946;14.610;2023-04-25T01:37:37;8.30;;;4.20;;
4198;SDS011;2113;50.946;14.610;2023-04-25T01:40:06;9.20;;;4.45;;
4198;SDS011;2113;50.946;14.610;2023-04-25T01:42:35;7.22;;;3.95;;
4198;SDS011;2113;50.946;14.610;2023-04-25T01:45:06;7.53;;;3.90;;
4198;SDS011;2113;50.946;14.610;2023-04-25T01:47:35;10.35;;;4.35;;
4198;SDS011;2113;50.946;14.610;2023-04-25T01:50:05;6.68;;;3.97;;
4198;SDS011;2113;50.946;14.610;2023-04-25T01:52:37;8.20;;;4.05;;
4198;SDS011;2113;50.946;14.610;2023-04-25T01:55:06;8.15;;;4.65;;
4198;SDS011;2113;50.946;14.610;2023-04-25T01:57:39;8.18;;;4.15;;
4198;SDS011;2113;50.946;14.610;2023-04-25T02:00:08;9.35;;;5.05;;
4198;SDS011;2113;50.946;14.610;2023-04-25T02:02:39;8.65;;;4.35;;
4198;SDS011;2113;50.946;14.610;2023-04-25T02:05:19;6.88;;;3.53;;
4198;SDS011;2113;50.946;14.610;2023-04-25T02:07:49;9.10;;;3.80;;
4198;SDS011;2113;50.946;14.610;2023-04-25T02:10:17;6.80;;;3.45;;
4198;SDS011;2113;50.946;14.610;2023-04-25T02:13:02;6.13;;;3.72;;
4198;SDS011;2113;50.946;14.610;2023-04-25T02:15:41;6.55;;;3.63;;
4198;SDS011;2113;50.946;14.610;2023-04-25T02:18:14;5.85;;;3.45;;
4198;SDS011;2113;50.946;14.610;2023-04-25T02:20:43;6.97;;;3.53;;
4198;SDS011;2113;50.946;14.610;2023-04-25T02:23:13;7.25;;;4.28;;
4198;SDS011;2113;50.946;14.610;2023-04-25T02:25:42;8.07;;;3.88;;
4198;SDS011;2113;50.946;14.610;2023-04-25T02:28:10;11.52;;;4.43;;
4198;SDS011;2113;50.946;14.610;2023-04-25T02:30:39;9.43;;;4.05;;
4198;SDS011;2113;50.946;14.610;2023-04-25T02:33:07;8.85;;;4.00;;
4198;SDS011;2113;50.946;14.610;2023-04-25T02:35:35;9.10;;;4.93;;
4198;SDS011;2113;50.946;14.610;2023-04-25T02:38:04;8.68;;;4.70;;
4198;SDS011;2113;50.946;14.610;2023-04-25T02:40:33;7.93;;;4.82;;
4198;SDS011;2113;50.946;14.610;2023-04-25T02:43:01;8.25;;;4.40;;
4198;SDS011;2113;50.946;14.610;2023-04-25T02:45:30;12.13;;;5.38;;
4198;SDS011;2113;50.946;14.610;2023-04-25T02:47:58;10.70;;;5.38;;
4198;SDS011;2113;50.946;14.610;2023-04-25T02:50:27;9.85;;;5.80;;
4198;SDS011;2113;50.946;14.610;2023-04-25T02:52:55;9.48;;;5.75;;
4198;SDS011;2113;50.946;14.610;2023-04-25T02:55:29;9.10;;;5.65;;
4198;SDS011;2113;50.946;14.610;2023-04-25T02:58:00;9.18;;;5.35;;
4198;SDS011;2113;50.946;14.610;2023-04-25T03:00:39;9.90;;;4.97;;
4198;SDS011;2113;50.946;14.610;2023-04-25T03:03:07;9.05;;;6.22;;
4198;SDS011;2113;50.946;14.610;2023-04-25T03:05:36;9.05;;;5.10;;
4198;SDS011;2113;50.946;14.610;2023-04-25T03:08:05;9.10;;;5.50;;
4198;SDS011;2113;50.946;14.610;2023-04-25T03:10:36;12.52;;;4.97;;
4198;SDS011;2113;50.946;14.610;2023-04-25T03:13:08;8.88;;;4.60;;
4198;SDS011;2113;50.946;14.610;2023-04-25T03:15:37;13.98;;;6.00;;
4198;SDS011;2113;50.946;14.610;2023-04-25T03:18:06;16.13;;;8.45;;
4198;SDS011;2113;50.946;14.610;2023-04-25T03:20:35;13.85;;;5.90;;
4198;SDS011;2113;50.946;14.610;2023-04-25T03:23:03;12.13;;;5.35;;
4198;SDS011;2113;50.946;14.610;2023-04-25T03:25:31;11.60;;;5.55;;
4198;SDS011;2113;50.946;14.610;2023-04-25T03:27:59;9.32;;;5.60;;
4198;SDS011;2113;50.946;14.610;2023-04-25T03:30:29;8.38;;;5.22;;
4198;SDS011;2113;50.946;14.610;2023-04-25T03:32:57;7.93;;;4.97;;
4198;SDS011;2113;50.946;14.610;2023-04-25T03:35:26;8.73;;;5.20;;
4198;SDS011;2113;50.946;14.610;2023-04-25T03:37:54;8.35;;;5.03;;
4198;SDS011;2113;50.946;14.610;2023-04-25T03:40:27;13.45;;;5.97;;
4198;SDS011;2113;50.946;14.610;2023-04-25T03:43:10;10.15;;;4.95;;
4198;SDS011;2113;50.946;14.610;2023-04-25T03:45:46;12.23;;;6.15;;
4198;SDS011;2113;50.946;14.610;2023-04-25T03:48:18;12.45;;;5.13;;
4198;SDS011;2113;50.946;14.610;2023-04-25T03:50:48;9.82;;;5.07;;
4198;SDS011;2113;50.946;14.610;2023-04-25T03:53:17;7.82;;;4.93;;
4198;SDS011;2113;50.946;14.610;2023-04-25T03:56:08;9.70;;;5.43;;
4198;SDS011;2113;50.946;14.610;2023-04-25T03:58:38;12.60;;;5.68;;
4198;SDS011;2113;50.946;14.610;2023-04-25T04:01:08;9.55;;;6.05;;
4198;SDS011;2113;50.946;14.610;2023-04-25T04:03:38;8.70;;;5.80;;
4198;SDS011;2113;50.946;14.610;2023-04-25T04:06:07;8.90;;;5.82;;
4198;SDS011;2113;50.946;14.610;2023-04-25T04:08:43;10.07;;;4.85;;
4198;SDS011;2113;50.946;14.610;2023-04-25T04:11:11;11.52;;;5.32;;
4198;SDS011;2113;50.946;14.610;2023-04-25T04:13:40;11.05;;;5.80;;
4198;SDS011;2113;50.946;14.610;2023-04-25T04:16:09;16.85;;;4.40;;
4198;SDS011;2113;50.946;14.610;2023-04-25T04:18:38;10.35;;;5.40;;
4198;SDS011;2113;50.946;14.610;2023-04-25T04:21:06;9.30;;;4.82;;
4198;SDS011;2113;50.946;14.610;2023-04-25T04:23:37;9.85;;;6.05;;
4198;SDS011;2113;50.946;14.610;2023-04-25T04:26:08;11.02;;;4.45;;
4198;SDS011;2113;50.946;14.610;2023-04-25T04:28:57;10.63;;;4.80;;
4198;SDS011;2113;50.946;14.610;2023-04-25T04:31:59;8.95;;;6.07;;
4198;SDS011;2113;50.946;14.610;2023-04-25T04:34:28;11.50;;;4.97;;
4198;SDS011;2113;50.946;14.610;2023-04-25T04:36:57;9.35;;;5.40;;
4198;SDS011;2113;50.946;14.610;2023-04-25T04:39:27;15.10;;;6.85;;
4198;SDS011;2113;50.946;14.610;2023-04-25T04:42:18;10.70;;;5.97;;
4198;SDS011;2113;50.946;14.610;2023-04-25T04:44:54;12.70;;;4.85;;
4198;SDS011;2113;50.946;14.610;2023-04-25T04:47:27;9.07;;;5.60;;
4198;SDS011;2113;50.946;14.610;2023-04-25T04:50:17;10.30;;;6.70;;
4198;SDS011;2113;50.946;14.610;2023-04-25T04:53:08;7.93;;;5.80;;
4198;SDS011;2113;50.946;14.610;2023-04-25T04:55:44;8.32;;;5.40;;
4198;SDS011;2113;50.946;14.610;2023-04-25T04:58:33;17.05;;;6.43;;
4198;SDS011;2113;50.946;14.610;2023-04-25T05:01:19;11.98;;;5.80;;
4198;SDS011;2113;50.946;14.610;2023-04-25T05:04:05;10.57;;;6.28;;
4198;SDS011;2113;50.946;14.610;2023-04-25T05:07:00;10.82;;;6.90;;
4198;SDS011;2113;50.946;14.610;2023-04-25T05:09:31;11.73;;;7.47;;
4198;SDS011;2113;50.946;14.610;2023-04-25T05:12:18;11.27;;;6.55;;
4198;SDS011;2113;50.946;14.610;2023-04-25T05:14:56;16.70;;;7.20;;
4198;SDS011;2113;50.946;14.610;2023-04-25T05:17:52;16.42;;;7.65;;
4198;SDS011;2113;50.946;14.610;2023-04-25T05:20:32;9.20;;;5.88;;
4198;SDS011;2113;50.946;14.610;2023-04-25T05:23:19;11.45;;;6.30;;
4198;SDS011;2113;50.946;14.610;2023-04-25T05:26:00;7.20;;;5.65;;
4198;SDS011;2113;50.946;14.610;2023-04-25T05:28:37;10.60;;;6.20;;
4198;SDS011;2113;50.946;14.610;2023-04-25T05:31:24;8.32;;;5.05;;
4198;SDS011;2113;50.946;14.610;2023-04-25T05:34:02;9.77;;;5.28;;
4198;SDS011;2113;50.946;14.610;2023-04-25T05:36:44;8.85;;;5.82;;
4198;SDS011;2113;50.946;14.610;2023-04-25T05:39:15;12.77;;;5.60;;
4198;SDS011;2113;50.946;14.610;2023-04-25T05:42:06;11.77;;;5.60;;
4198;SDS011;2113;50.946;14.610;2023-04-25T05:44:44;9.07;;;5.78;;
4198;SDS011;2113;50.946;14.610;2023-04-25T05:47:38;10.25;;;5.55;;
4198;SDS011;2113;50.946;14.610;2023-04-25T05:50:21;13.95;;;5.65;;
4198;SDS011;2113;50.946;14.610;2023-04-25T05:53:04;11.20;;;5.70;;
4198;SDS011;2113;50.946;14.610;2023-04-25T05:55:39;9.48;;;5.43;;
4198;SDS011;2113;50.946;14.610;2023-04-25T05:58:24;11.48;;;6.05;;
4198;SDS011;2113;50.946;14.610;2023-04-25T06:00:53;13.68;;;6.65;;
4198;SDS011;2113;50.946;14.610;2023-04-25T06:03:22;10.68;;;5.88;;
4198;SDS011;2113;50.946;14.610;2023-04-25T06:05:51;8.85;;;5.40;;
4198;SDS011;2113;50.946;14.610;2023-04-25T06:08:21;11.55;;;6.00;;
4198;SDS011;2113;50.946;14.610;2023-04-25T06:10:49;10.50;;;5.93;;
4198;SDS011;2113;50.946;14.610;2023-04-25T06:13:18;9.35;;;6.30;;
4198;SDS011;2113;50.946;14.610;2023-04-25T06:15:47;8.48;;;4.90;;
4198;SDS011;2113;50.946;14.610;2023-04-25T06:18:16;7.85;;;5.28;;
4198;SDS011;2113;50.946;14.610;2023-04-25T06:20:45;9.10;;;5.20;;
4198;SDS011;2113;50.946;14.610;2023-04-25T06:23:13;11.93;;;5.88;;
4198;SDS011;2113;50.946;14.610;2023-04-25T06:25:51;10.05;;;5.68;;
4198;SDS011;2113;50.946;14.610;2023-04-25T06:28:19;16.23;;;5.63;;
4198;SDS011;2113;50.946;14.610;2023-04-25T06:30:48;8.15;;;5.07;;
4198;SDS011;2113;50.946;14.610;2023-04-25T06:33:18;10.20;;;5.45;;
4198;SDS011;2113;50.946;14.610;2023-04-25T06:35:49;11.98;;;5.97;;
4198;SDS011;2113;50.946;14.610;2023-04-25T06:38:22;7.22;;;4.90;;
4198;SDS011;2113;50.946;14.610;2023-04-25T06:40:52;11.30;;;5.25;;
4198;SDS011;2113;50.946;14.610;2023-04-25T06:43:21;10.10;;;5.22;;
4198;SDS011;2113;50.946;14.610;2023-04-25T06:46:10;8.77;;;5.05;;
4198;SDS011;2113;50.946;14.610;2023-04-25T06:48:43;14.70;;;4.43;;
4198;SDS011;2113;50.946;14.610;2023-04-25T06:51:11;6.57;;;3.58;;
4198;SDS011;2113;50.946;14.610;2023-04-25T06:53:41;7.80;;;4.43;;
4198;SDS011;2113;50.946;14.610;2023-04-25T06:56:19;7.05;;;3.65;;
4198;SDS011;2113;50.946;14.610;2023-04-25T06:59:05;8.25;;;4.50;;
4198;SDS011;2113;50.946;14.610;2023-04-25T07:01:39;6.43;;;3.78;;
4198;SDS011;2113;50.946;14.610;2023-04-25T07:04:25;8.40;;;4.38;;
4198;SDS011;2113;50.946;14.610;2023-04-25T07:06:56;11.07;;;4.13;;
4198;SDS011;2113;50.946;14.610;2023-04-25T07:09:40;7.13;;;4.15;;
4198;SDS011;2113;50.946;14.610;2023-04-25T07:12:20;7.72;;;4.20;;
4198;SDS011;2113;50.946;14.610;2023-04-25T07:14:49;5.93;;;3.22;;
4198;SDS011;2113;50.946;14.610;2023-04-25T07:17:17;7.03;;;4.22;;
4198;SDS011;2113;50.946;14.610;2023-04-25T07:19:45;12.65;;;4.68;;
4198;SDS011;2113;50.946;14.610;2023-04-25T07:22:14;7.13;;;3.95;;
4198;SDS011;2113;50.946;14.610;2023-04-25T07:24:42;7.25;;;4.13;;
4198;SDS011;2113;50.946;14.610;2023-04-25T07:27:15;7.43;;;4.35;;
4198;SDS011;2113;50.946;14.610;2023-04-25T07:29:56;11.57;;;3.88;;
4198;SDS011;2113;50.946;14.610;2023-04-25T07:32:25;7.75;;;3.83;;
4198;SDS011;2113;50.946;14.610;2023-04-25T07:34:53;8.90;;;4.20;;
4198;SDS011;2113;50.946;14.610;2023-04-25T07:37:21;6.30;;;3.67;;
4198;SDS011;2113;50.946;14.610;2023-04-25T07:40:12;6.75;;;3.97;;
4198;SDS011;2113;50.946;14.610;2023-04-25T07:42:46;10.63;;;4.13;;
4198;SDS011;2113;50.946;14.610;2023-04-25T07:45:20;7.65;;;3.80;;
4198;SDS011;2113;50.946;14.610;2023-04-25T07:47:48;6.00;;;3.53;;
4198;SDS011;2113;50.946;14.610;2023-04-25T07:50:17;6.85;;;3.75;;
4198;SDS011;2113;50.946;14.610;2023-04-25T07:52:46;5.72;;;3.45;;
4198;SDS011;2113;50.946;14.610;2023-04-25T07:55:21;9.70;;;4.20;;
4198;SDS011;2113;50.946;14.610;2023-04-25T07:58:16;7.82;;;4.93;;
4198;SDS011;2113;50.946;14.610;2023-04-25T08:00:53;6.05;;;2.55;;
4198;SDS011;2113;50.946;14.610;2023-04-25T08:03:38;5.60;;;3.40;;
4198;SDS011;2113;50.946;14.610;2023-04-25T08:06:14;5.72;;;3.03;;
4198;SDS011;2113;50.946;14.610;2023-04-25T08:08:57;11.25;;;3.63;;
4198;SDS011;2113;50.946;14.610;2023-04-25T08:11:33;5.93;;;3.13;;
4198;SDS011;2113;50.946;14.610;2023-04-25T08:14:02;4.70;;;3.20;;
4198;SDS011;2113;50.946;14.610;2023-04-25T08:16:31;7.22;;;3.95;;
4198;SDS011;2113;50.946;14.610;2023-04-25T08:19:00;8.75;;;3.92;;
4198;SDS011;2113;50.946;14.610;2023-04-25T08:21:28;10.18;;;4.35;;
4198;SDS011;2113;50.946;14.610;2023-04-25T08:24:01;6.47;;;2.80;;
4198;SDS011;2113;50.946;14.610;2023-04-25T08:26:33;5.22;;;3.40;;
4198;SDS011;2113;50.946;14.610;2023-04-25T08:29:01;11.95;;;4.13;;
4198;SDS011;2113;50.946;14.610;2023-04-25T08:31:31;7.97;;;3.33;;
4198;SDS011;2113;50.946;14.610;2023-04-25T08:34:02;7.05;;;4.10;;
4198;SDS011;2113;50.946;14.610;2023-04-25T08:36:56;8.73;;;3.45;;
4198;SDS011;2113;50.946;14.610;2023-04-25T08:39:39;6.75;;;3.60;;
4198;SDS011;2113;50.946;14.610;2023-04-25T08:42:22;7.50;;;3.25;;
4198;SDS011;2113;50.946;14.610;2023-04-25T08:44:52;7.20;;;3.97;;
4198;SDS011;2113;50.946;14.610;2023-04-25T08:47:26;4.63;;;2.83;;
4198;SDS011;2113;50.946;14.610;2023-04-25T08:49:58;5.93;;;3.58;;
4198;SDS011;2113;50.946;14.610;2023-04-25T08:52:30;6.97;;;3.28;;
4198;SDS011;2113;50.946;14.610;2023-04-25T08:55:03;6.45;;;3.80;;
4198;SDS011;2113;50.946;14.610;2023-04-25T08:57:35;5.13;;;2.97;;
4198;SDS011;2113;50.946;14.610;2023-04-25T09:00:05;7.57;;;3.35;;
4198;SDS011;2113;50.946;14.610;2023-04-25T09:02:39;7.05;;;3.67;;
4198;SDS011;2113;50.946;14.610;2023-04-25T09:05:12;4.25;;;3.30;;
4198;SDS011;2113;50.946;14.610;2023-04-25T09:07:42;5.80;;;3.67;;
4198;SDS011;2113;50.946;14.610;2023-04-25T09:10:10;7.65;;;3.38;;
4198;SDS011;2113;50.946;14.610;2023-04-25T09:12:39;6.70;;;3.83;;
4198;SDS011;2113;50.946;14.610;2023-04-25T09:15:09;7.88;;;3.80;;
4198;SDS011;2113;50.946;14.610;2023-04-25T09:18:06;6.43;;;3.28;;
4198;SDS011;2113;50.946;14.610;2023-04-25T09:20:41;6.07;;;2.92;;
4198;SDS011;2113;50.946;14.610;2023-04-25T09:23:30;5.13;;;3.08;;
4198;SDS011;2113;50.946;14.610;2023-04-25T09:26:07;6.53;;;3.70;;
4198;SDS011;2113;50.946;14.610;2023-04-25T09:28:36;4.93;;;3.13;;
4198;SDS011;2113;50.946;14.610;2023-04-25T09:31:05;5.90;;;4.65;;
4198;SDS011;2113;50.946;14.610;2023-04-25T09:33:43;4.57;;;3.53;;
4198;SDS011;2113;50.946;14.610;2023-04-25T09:36:12;4.70;;;2.35;;
4198;SDS011;2113;50.946;14.610;2023-04-25T09:39:03;4.97;;;2.65;;
4198;SDS011;2113;50.946;14.610;2023-04-25T09:41:47;8.55;;;3.88;;
4198;SDS011;2113;50.946;14.610;2023-04-25T09:44:19;3.47;;;2.08;;
4198;SDS011;2113;50.946;14.610;2023-04-25T09:46:53;4.90;;;2.45;;
4198;SDS011;2113;50.946;14.610;2023-04-25T09:49:26;4.78;;;2.22;;
4198;SDS011;2113;50.946;14.610;2023-04-25T09:52:16;3.72;;;2.50;;
4198;SDS011;2113;50.946;14.610;2023-04-25T09:54:57;4.35;;;2.25;;
4198;SDS011;2113;50.946;14.610;2023-04-25T09:57:31;3.75;;;2.50;;
4198;SDS011;2113;50.946;14.610;2023-04-25T10:00:02;5.05;;;3.05;;
4198;SDS011;2113;50.946;14.610;2023-04-25T10:02:42;4.00;;;2.63;;
4198;SDS011;2113;50.946;14.610;2023-04-25T10:05:47;7.78;;;1.98;;
4198;SDS011;2113;50.946;14.610;2023-04-25T10:08:19;5.40;;;2.50;;
4198;SDS011;2113;50.946;14.610;2023-04-25T10:10:48;6.38;;;2.20;;
4198;SDS011;2113;50.946;14.610;2023-04-25T10:13:17;3.10;;;1.90;;
4198;SDS011;2113;50.946;14.610;2023-04-25T10:15:47;6.15;;;2.58;;
4198;SDS011;2113;50.946;14.610;2023-04-25T10:18:17;9.05;;;3.05;;
4198;SDS011;2113;50.946;14.610;2023-04-25T10:20:48;4.45;;;2.35;;
4198;SDS011;2113;50.946;14.610;2023-04-25T10:23:20;6.20;;;2.70;;
4198;SDS011;2113;50.946;14.610;2023-04-25T10:25:48;8.50;;;3.10;;
4198;SDS011;2113;50.946;14.610;2023-04-25T10:28:18;4.30;;;2.13;;
4198;SDS011;2113;50.946;14.610;2023-04-25T10:30:58;8.98;;;2.60;;
4198;SDS011;2113;50.946;14.610;2023-04-25T10:33:34;4.68;;;1.92;;
4198;SDS011;2113;50.946;14.610;2023-04-25T10:36:09;7.07;;;2.70;;
4198;SDS011;2113;50.946;14.610;2023-04-25T10:38:39;4.43;;;2.25;;
4198;SDS011;2113;50.946;14.610;2023-04-25T10:41:08;3.75;;;2.35;;
4198;SDS011;2113;50.946;14.610;2023-04-25T10:43:37;6.70;;;2.95;;
4198;SDS011;2113;50.946;14.610;2023-04-25T10:46:16;4.88;;;2.67;;
4198;SDS011;2113;50.946;14.610;2023-04-25T10:48:46;5.32;;;2.70;;
4198;SDS011;2113;50.946;14.610;2023-04-25T10:51:19;5.85;;;2.90;;
4198;SDS011;2113;50.946;14.610;2023-04-25T10:53:59;3.60;;;2.10;;
4198;SDS011;2113;50.946;14.610;2023-04-25T10:56:29;4.78;;;3.10;;
4198;SDS011;2113;50.946;14.610;2023-04-25T10:59:05;9.32;;;3.30;;
4198;SDS011;2113;50.946;14.610;2023-04-25T11:01:38;5.07;;;3.00;;
4198;SDS011;2113;50.946;14.610;2023-04-25T11:04:21;8.82;;;3.70;;
4198;SDS011;2113;50.946;14.610;2023-04-25T11:06:58;5.85;;;3.80;;
4198;SDS011;2113;50.946;14.610;2023-04-25T11:09:34;7.97;;;3.88;;
4198;SDS011;2113;50.946;14.610;2023-04-25T11:12:04;9.10;;;4.15;;
4198;SDS011;2113;50.946;14.610;2023-04-25T11:14:35;10.55;;;4.68;;
4198;SDS011;2113;50.946;14.610;2023-04-25T11:17:03;10.02;;;4.35;;
4198;SDS011;2113;50.946;14.610;2023-04-25T11:19:32;4.45;;;2.83;;
4198;SDS011;2113;50.946;14.610;2023-04-25T11:22:02;7.57;;;3.65;;
4198;SDS011;2113;50.946;14.610;2023-04-25T11:24:32;3.92;;;2.67;;
4198;SDS011;2113;50.946;14.610;2023-04-25T11:27:04;9.05;;;5.40;;
4198;SDS011;2113;50.946;14.610;2023-04-25T11:29:34;5.00;;;3.72;;
4198;SDS011;2113;50.946;14.610;2023-04-25T11:32:02;6.38;;;5.43;;
4198;SDS011;2113;50.946;14.610;2023-04-25T11:34:32;8.15;;;5.05;;
4198;SDS011;2113;50.946;14.610;2023-04-25T11:37:02;7.43;;;5.47;;
4198;SDS011;2113;50.946;14.610;2023-04-25T11:39:31;7.90;;;4.40;;
4198;SDS011;2113;50.946;14.610;2023-04-25T11:41:59;7.20;;;4.32;;
4198;SDS011;2113;50.946;14.610;2023-04-25T11:44:39;9.50;;;4.50;;
4198;SDS011;2113;50.946;14.610;2023-04-25T11:47:07;9.13;;;4.57;;
4198;SDS011;2113;50.946;14.610;2023-04-25T11:49:36;5.63;;;3.72;;
4198;SDS011;2113;50.946;14.610;2023-04-25T11:52:07;7.38;;;4.40;;
4198;SDS011;2113;50.946;14.610;2023-04-25T11:54:35;12.43;;;4.30;;
4198;SDS011;2113;50.946;14.610;2023-04-25T11:57:04;5.07;;;3.35;;
4198;SDS011;2113;50.946;14.610;2023-04-25T11:59:33;4.45;;;3.22;;
4198;SDS011;2113;50.946;14.610;2023-04-25T12:02:01;7.00;;;3.25;;
4198;SDS011;2113;50.946;14.610;2023-04-25T12:04:30;5.47;;;3.20;;
4198;SDS011;2113;50.946;14.610;2023-04-25T12:06:59;3.55;;;2.53;;
4198;SDS011;2113;50.946;14.610;2023-04-25T12:09:30;4.00;;;2.50;;
4198;SDS011;2113;50.946;14.610;2023-04-25T12:12:00;3.25;;;2.35;;
4198;SDS011;2113;50.946;14.610;2023-04-25T12:14:31;5.35;;;2.95;;
4198;SDS011;2113;50.946;14.610;2023-04-25T12:17:01;4.28;;;2.60;;
4198;SDS011;2113;50.946;14.610;2023-04-25T12:19:32;4.97;;;2.40;;
4198;SDS011;2113;50.946;14.610;2023-04-25T12:22:01;3.15;;;2.30;;
4198;SDS011;2113;50.946;14.610;2023-04-25T12:24:33;3.50;;;2.20;;
4198;SDS011;2113;50.946;14.610;2023-04-25T12:27:05;3.15;;;2.13;;
4198;SDS011;2113;50.946;14.610;2023-04-25T12:29:35;5.57;;;2.30;;
4198;SDS011;2113;50.946;14.610;2023-04-25T12:32:15;4.55;;;2.30;;
4198;SDS011;2113;50.946;14.610;2023-04-25T12:34:44;5.28;;;3.03;;
4198;SDS011;2113;50.946;14.610;2023-04-25T12:37:13;3.80;;;2.20;;
4198;SDS011;2113;50.946;14.610;2023-04-25T12:39:43;6.72;;;3.35;;
4198;SDS011;2113;50.946;14.610;2023-04-25T12:42:12;5.60;;;3.10;;
4198;SDS011;2113;50.946;14.610;2023-04-25T12:44:40;7.85;;;4.13;;
4198;SDS011;2113;50.946;14.610;2023-04-25T12:47:08;6.20;;;4.07;;
4198;SDS011;2113;50.946;14.610;2023-04-25T12:49:37;13.40;;;4.20;;
4198;SDS011;2113;50.946;14.610;2023-04-25T12:52:05;6.72;;;4.20;;
4198;SDS011;2113;50.946;14.610;2023-04-25T12:54:33;7.53;;;4.03;;
4198;SDS011;2113;50.946;14.610;2023-04-25T12:57:03;7.03;;;4.43;;
4198;SDS011;2113;50.946;14.610;2023-04-25T12:59:32;13.73;;;6.07;;
4198;SDS011;2113;50.946;14.610;2023-04-25T13:02:00;9.65;;;5.57;;
4198;SDS011;2113;50.946;14.610;2023-04-25T13:04:29;6.88;;;4.95;;
4198;SDS011;2113;50.946;14.610;2023-04-25T13:06:58;9.32;;;5.90;;
4198;SDS011;2113;50.946;14.610;2023-04-25T13:09:26;15.02;;;7.18;;
4198;SDS011;2113;50.946;14.610;2023-04-25T13:11:54;13.13;;;6.32;;
4198;SDS011;2113;50.946;14.610;2023-04-25T13:14:26;10.25;;;4.63;;
4198;SDS011;2113;50.946;14.610;2023-04-25T13:16:54;9.25;;;4.18;;
4198;SDS011;2113;50.946;14.610;2023-04-25T13:19:23;8.25;;;3.50;;
4198;SDS011;2113;50.946;14.610;2023-04-25T13:21:52;6.15;;;3.95;;
4198;SDS011;2113;50.946;14.610;2023-04-25T13:24:20;6.82;;;3.58;;
4198;SDS011;2113;50.946;14.610;2023-04-25T13:26:49;10.77;;;3.33;;
4198;SDS011;2113;50.946;14.610;2023-04-25T13:29:18;5.18;;;3.13;;
4198;SDS011;2113;50.946;14.610;2023-04-25T13:31:47;7.25;;;2.65;;
4198;SDS011;2113;50.946;14.610;2023-04-25T13:34:15;7.85;;;2.67;;
4198;SDS011;2113;50.946;14.610;2023-04-25T13:36:44;4.63;;;2.00;;
4198;SDS011;2113;50.946;14.610;2023-04-25T13:39:12;3.90;;;1.80;;
4198;SDS011;2113;50.946;14.610;2023-04-25T13:41:40;5.32;;;1.75;;
4198;SDS011;2113;50.946;14.610;2023-04-25T13:44:09;9.27;;;2.20;;
4198;SDS011;2113;50.946;14.610;2023-04-25T13:46:37;7.05;;;1.73;;
4198;SDS011;2113;50.946;14.610;2023-04-25T13:49:14;3.50;;;1.90;;
4198;SDS011;2113;50.946;14.610;2023-04-25T13:51:43;4.65;;;1.75;;
4198;SDS011;2113;50.946;14.610;2023-04-25T13:54:12;7.35;;;2.40;;
4198;SDS011;2113;50.946;14.610;2023-04-25T13:56:40;6.35;;;2.72;;
4198;SDS011;2113;50.946;14.610;2023-04-25T13:59:09;4.90;;;2.28;;
4198;SDS011;2113;50.946;14.610;2023-04-25T14:01:38;5.30;;;2.60;;
4198;SDS011;2113;50.946;14.610;2023-04-25T14:04:06;10.32;;;2.70;;
4198;SDS011;2113;50.946;14.610;2023-04-25T14:06:36;4.63;;;2.72;;
4198;SDS011;2113;50.946;14.610;2023-04-25T14:09:04;7.90;;;2.75;;
4198;SDS011;2113;50.946;14.610;2023-04-25T14:11:33;10.30;;;3.78;;
4198;SDS011;2113;50.946;14.610;2023-04-25T14:14:02;7.10;;;3.17;;
4198;SDS011;2113;50.946;14.610;2023-04-25T14:16:30;7.40;;;2.60;;
4198;SDS011;2113;50.946;14.610;2023-04-25T14:18:59;8.35;;;3.35;;
4198;SDS011;2113;50.946;14.610;2023-04-25T14:21:29;8.88;;;2.78;;
4198;SDS011;2113;50.946;14.610;2023-04-25T14:24:00;14.75;;;3.50;;
4198;SDS011;2113;50.946;14.610;2023-04-25T14:26:29;7.63;;;3.15;;
4198;SDS011;2113;50.946;14.610;2023-04-25T14:28:58;11.05;;;3.17;;
4198;SDS011;2113;50.946;14.610;2023-04-25T14:31:26;9.90;;;4.20;;
4198;SDS011;2113;50.946;14.610;2023-04-25T14:33:54;9.13;;;3.28;;
4198;SDS011;2113;50.946;14.610;2023-04-25T14:36:25;11.40;;;4.50;;
4198;SDS011;2113;50.946;14.610;2023-04-25T14:38:54;12.80;;;3.40;;
4198;SDS011;2113;50.946;14.610;2023-04-25T14:41:24;6.00;;;3.53;;
4198;SDS011;2113;50.946;14.610;2023-04-25T14:43:54;9.70;;;4.07;;
4198;SDS011;2113;50.946;14.610;2023-04-25T14:46:24;9.10;;;3.97;;
4198;SDS011;2113;50.946;14.610;2023-04-25T14:48:52;10.60;;;4.70;;
4198;SDS011;2113;50.946;14.610;2023-04-25T14:51:22;11.52;;;4.20;;
4198;SDS011;2113;50.946;14.610;2023-04-25T14:53:51;10.90;;;4.45;;
4198;SDS011;2113;50.946;14.610;2023-04-25T14:56:20;18.52;;;5.50;;
4198;SDS011;2113;50.946;14.610;2023-04-25T14:58:49;13.07;;;4.88;;
4198;SDS011;2113;50.946;14.610;2023-04-25T15:01:18;12.48;;;5.90;;
4198;SDS011;2113;50.946;14.610;2023-04-25T16:17:39;16.10;;;5.83;;
4198;SDS011;2113;50.946;14.610;2023-04-25T16:24:44;10.32;;;5.47;;
4198;SDS011;2113;50.946;14.610;2023-04-25T16:27:15;14.15;;;5.10;;
4198;SDS011;2113;50.946;14.610;2023-04-25T16:29:43;11.30;;;5.65;;
4198;SDS011;2113;50.946;14.610;2023-04-25T16:32:12;14.98;;;5.38;;
4198;SDS011;2113;50.946;14.610;2023-04-25T16:34:41;13.10;;;5.05;;
4198;SDS011;2113;50.946;14.610;2023-04-25T16:37:10;10.48;;;4.30;;
4198;SDS011;2113;50.946;14.610;2023-04-25T16:39:38;13.45;;;4.53;;
4198;SDS011;2113;50.946;14.610;2023-04-25T16:42:06;10.98;;;4.40;;
4198;SDS011;2113;50.946;14.610;2023-04-25T16:44:34;10.57;;;4.10;;
4198;SDS011;2113;50.946;14.610;2023-04-25T16:47:03;11.32;;;3.60;;